TAF EPSY 231730Z 2318/2403 15005KT 9999 SCT040 PROB30 TEMPO 2318/2403 4000 BR BKN014=